Time;durP1;ratioP1;P1;durP2;ratioP2;P2;SDS_P1;SDS_P2;PMS_P1;PMS_P2;Temp;Humidity;BMP_temperature;BMP_pressure;BME280_temperature;BME280_humidity;BME280_pressure;Samples;Min_cycle;Max_cycle;Signal;HPM_P1;HPM_P2
2023/09/10 00:00:47;;;;;;;8.38;6.63;;;;;;;22.05;76.77;101097.44;4822339;29;20054;-74
2023/09/10 00:03:15;;;;;;;8.40;6.82;;;;;;;21.97;77.21;101091.63;4822035;29;20058;-74
2023/09/10 00:05:43;;;;;;;9.75;7.30;;;;;;;22.09;76.13;101092.81;4822500;29;20058;-74
2023/09/10 00:08:11;;;;;;;9.98;6.45;;;;;;;22.04;76.66;101093.84;4823694;29;20057;-74
2023/09/10 00:10:39;;;;;;;7.90;6.85;;;;;;;21.96;78.35;101092.81;4821946;29;20054;-74
2023/09/10 00:13:08;;;;;;;8.05;6.95;;;;;;;21.91;77.09;101094.97;4826571;29;20051;-74
2023/09/10 00:15:36;;;;;;;8.50;6.43;;;;;;;21.89;78.27;101098.09;4825332;29;20073;-74
2023/09/10 00:18:05;;;;;;;8.93;6.60;;;;;;;21.87;77.63;101095.69;4825965;29;20065;-74
2023/09/10 00:20:33;;;;;;;7.35;6.40;;;;;;;21.86;77.58;101094.03;4826085;29;20410;-74
2023/09/10 00:23:01;;;;;;;8.20;6.93;;;;;;;21.91;77.35;101103.34;4825705;29;20058;-74
2023/09/10 00:25:29;;;;;;;7.90;6.63;;;;;;;21.93;77.36;101092.66;4825586;29;20538;-74
2023/09/10 00:27:57;;;;;;;10.10;6.45;;;;;;;21.97;76.82;101091.63;4825451;29;20486;-74
2023/09/10 00:30:28;;;;;;;8.45;6.30;;;;;;;22.01;76.76;101095.34;4825281;29;20047;-74
2023/09/10 00:32:56;;;;;;;8.75;6.63;;;;;;;22.04;76.88;101093.03;4829812;29;20046;-74
2023/09/10 00:35:24;;;;;;;11.25;6.68;;;;;;;21.93;77.20;101087.91;4826993;29;20054;-74
2023/09/10 00:37:52;;;;;;;9.50;6.95;;;;;;;21.84;77.98;101087.19;4837160;29;20049;-74
2023/09/10 00:40:20;;;;;;;8.05;6.80;;;;;;;21.91;77.75;101093.03;4841539;29;20042;-74
2023/09/10 00:42:48;;;;;;;7.90;6.72;;;;;;;21.94;77.24;101092.31;4841773;29;20425;-74
2023/09/10 00:45:16;;;;;;;8.48;6.28;;;;;;;21.93;77.53;101090.69;4827003;29;20050;-74
2023/09/10 00:47:45;;;;;;;10.02;6.93;;;;;;;21.82;77.92;101101.47;4824228;29;20057;-74
2023/09/10 00:50:14;;;;;;;9.25;6.57;;;;;;;21.71;78.60;101089.94;4808841;29;20077;-74
2023/09/10 00:52:50;;;;;;;10.93;7.18;;;;;;;21.72;79.35;101094.38;4809012;29;20122;-74
2023/09/10 00:55:21;;;;;;;10.15;7.15;;;;;;;21.61;79.05;101091.16;4825230;29;20054;-74
2023/09/10 00:57:50;;;;;;;8.95;6.88;;;;;;;21.64;79.69;101092.44;4838719;29;20059;-74
2023/09/10 01:00:20;;;;;;;10.95;7.03;;;;;;;21.60;79.67;101088.72;4839902;29;20058;-74
2023/09/10 01:02:49;;;;;;;7.93;7.13;;;;;;;21.68;78.88;101089.78;4830227;29;20058;-74
2023/09/10 01:05:17;;;;;;;11.00;7.85;;;;;;;21.67;78.51;101094.56;4822001;29;20046;-74
2023/09/10 01:07:46;;;;;;;9.95;7.32;;;;;;;21.68;79.29;101079.47;4842115;29;20054;-74
2023/09/10 01:10:14;;;;;;;7.80;7.00;;;;;;;21.62;79.53;101086.41;4827597;29;20062;-74
2023/09/10 01:12:42;;;;;;;9.23;7.28;;;;;;;21.57;79.58;101079.09;4824955;29;20081;-74
2023/09/10 01:15:15;;;;;;;9.75;7.07;;;;;;;21.60;79.77;101074.78;4825320;29;20065;-74
2023/09/10 01:17:59;;;;;;;10.43;6.70;;;;;;;;;;4808861;29;20407;-74
2023/09/10 01:20:58;;;;;;;8.43;7.00;;;;;;;21.68;78.95;101081.44;4840968;29;20061;-74
2023/09/10 01:23:48;;;;;;;11.63;7.65;;;;;;;21.58;78.81;101077.13;4840981;29;20417;-74
2023/09/10 01:26:17;;;;;;;8.40;6.55;;;;;;;21.62;79.25;101072.50;4826119;29;20041;-74
2023/09/10 01:28:45;;;;;;;8.90;6.38;;;;;;;21.74;78.69;101074.50;4824989;29;20046;-74
2023/09/10 01:31:13;;;;;;;8.77;6.78;;;;;;;21.67;79.30;101071.47;4826319;29;20042;-74
2023/09/10 01:33:48;;;;;;;8.07;6.72;;;;;;;21.56;79.06;101076.66;4824847;29;20049;-74
2023/09/10 01:36:24;;;;;;;12.52;7.50;;;;;;;21.41;80.09;101078.91;4823968;29;20073;-74
2023/09/10 01:39:02;;;;;;;12.07;7.43;;;;;;;21.36;80.63;101070.78;4809154;29;20051;-74
2023/09/10 01:41:32;;;;;;;13.65;7.57;;;;;;;21.25;80.96;101084.31;4842366;29;20057;-74
2023/09/10 01:44:01;;;;;;;9.40;7.65;;;;;;;21.27;81.25;101082.00;4814226;29;20062;-74
2023/09/10 01:46:32;;;;;;;8.65;7.05;;;;;;;21.29;81.19;101081.66;4824250;29;20061;-74
2023/09/10 01:49:02;;;;;;;10.95;6.93;;;;;;;21.32;81.11;101078.19;4829896;29;20064;-74
2023/09/10 01:51:29;;;;;;;10.98;7.60;;;;;;;21.33;80.82;101080.66;4825917;29;20050;-74
2023/09/10 01:53:57;;;;;;;10.93;7.07;;;;;;;21.34;81.33;101078.66;4810695;29;20061;-74
2023/09/10 01:56:25;;;;;;;8.18;7.25;;;;;;;21.51;80.42;101079.66;4841646;29;20069;-74
2023/09/10 01:58:53;;;;;;;8.75;7.03;;;;;;;21.58;80.13;101077.13;4825093;29;20494;-74
2023/09/10 02:01:21;;;;;;;8.70;7.15;;;;;;;21.47;81.25;101071.19;4840519;29;20044;-74
2023/09/10 02:03:49;;;;;;;10.25;6.80;;;;;;;21.40;80.96;101082.84;4840502;29;20057;-74
2023/09/10 02:06:17;;;;;;;8.65;6.95;;;;;;;21.29;81.29;101074.13;4825791;29;20050;-74
2023/09/10 02:08:46;;;;;;;11.63;6.60;;;;;;;21.43;80.07;101078.59;4841095;29;20053;-74
2023/09/10 02:11:14;;;;;;;10.80;6.95;;;;;;;21.41;80.90;101076.13;4826811;29;20061;-74
2023/09/10 02:13:41;;;;;;;11.05;7.03;;;;;;;21.36;80.78;101079.13;4824105;29;20062;-74
2023/09/10 02:16:10;;;;;;;9.73;7.22;;;;;;;21.33;81.01;101077.03;4841583;29;20064;-74
2023/09/10 02:18:37;;;;;;;9.98;7.13;;;;;;;21.25;81.29;101077.94;4841630;29;20057;-74
2023/09/10 02:21:10;;;;;;;10.45;7.80;;;;;;;21.30;81.50;101074.94;4840550;29;20049;-74
2023/09/10 02:23:39;;;;;;;12.15;7.72;;;;;;;21.32;81.61;101069.84;4841511;29;20057;-74
2023/09/10 02:26:07;;;;;;;10.45;7.90;;;;;;;21.19;81.87;101071.75;4840990;29;20046;-74
2023/09/10 02:28:35;;;;;;;12.68;7.20;;;;;;;21.20;81.66;101076.16;4840569;29;20057;-74
2023/09/10 02:31:06;;;;;;;9.90;7.90;;;;;;;21.18;82.36;101070.97;4841488;29;20497;-74
2023/09/10 02:33:35;;;;;;;10.27;7.50;;;;;;;21.24;82.07;101081.84;4825066;29;20527;-74
2023/09/10 02:36:03;;;;;;;9.50;7.95;;;;;;;21.16;81.88;101069.66;4831283;29;20058;-74
2023/09/10 02:38:34;;;;;;;9.98;7.63;;;;;;;21.17;82.62;101083.22;4860251;29;20061;-74
2023/09/10 02:41:03;;;;;;;10.13;7.88;;;;;;;21.14;82.78;101078.34;4848527;29;20058;-74
2023/09/10 02:43:31;;;;;;;13.32;7.47;;;;;;;21.15;83.07;101079.16;4840471;29;20474;-74
2023/09/10 02:45:59;;;;;;;10.80;7.28;;;;;;;21.24;82.02;101082.69;4840927;29;20042;-74
2023/09/10 02:48:27;;;;;;;9.55;7.63;;;;;;;21.33;82.08;101085.38;4824627;29;20052;-74
2023/09/10 02:50:55;;;;;;;9.45;7.53;;;;;;;21.17;83.54;101083.22;4813692;29;20451;-74
2023/09/10 02:53:23;;;;;;;9.95;7.15;;;;;;;21.05;83.40;101084.00;4806839;29;20057;-74
2023/09/10 02:56:02;;;;;;;10.73;7.70;;;;;;;21.08;82.74;101088.84;4819418;29;20036;-74
2023/09/10 02:58:30;;;;;;;11.43;7.20;;;;;;;21.06;82.61;101077.25;4836444;29;20050;-74
2023/09/10 03:01:05;;;;;;;10.85;7.47;;;;;;;20.99;83.66;101077.00;4822931;29;20517;-74
2023/09/10 03:03:33;;;;;;;11.15;7.35;;;;;;;20.96;83.50;101085.22;4823363;29;20073;-74
2023/09/10 03:06:01;;;;;;;10.13;7.72;;;;;;;20.98;83.71;101069.00;4823047;29;20047;-74
2023/09/10 03:08:35;;;;;;;10.23;8.05;;;;;;;20.90;84.78;101084.59;4837045;29;20085;-74
2023/09/10 03:11:05;;;;;;;9.70;7.55;;;;;;;20.89;84.84;101078.22;4821641;29;20057;-74
2023/09/10 03:13:33;;;;;;;10.20;7.80;;;;;;;21.02;84.37;101075.50;4838539;29;20050;-74
2023/09/10 03:16:01;;;;;;;11.32;7.22;;;;;;;21.09;83.68;101075.78;4824480;29;20046;-74
2023/09/10 03:18:29;;;;;;;12.70;7.45;;;;;;;20.98;84.77;101074.56;4824617;29;20489;-74
2023/09/10 03:20:57;;;;;;;10.95;8.25;;;;;;;20.87;84.90;101074.16;4823950;29;20042;-74
2023/09/10 03:23:25;;;;;;;12.13;8.02;;;;;;;20.84;85.34;101075.63;4840717;29;20073;-74
2023/09/10 03:25:53;;;;;;;9.82;7.88;;;;;;;20.92;85.54;101076.75;4840377;29;20054;-74
2023/09/10 03:28:21;;;;;;;11.70;7.78;;;;;;;20.90;85.13;101085.41;4839508;29;20057;-74
2023/09/10 03:30:55;;;;;;;10.95;8.82;;;;;;;20.83;85.82;101079.56;4823611;29;20062;-74
2023/09/10 03:33:23;;;;;;;10.48;8.25;;;;;;;20.82;85.58;101080.69;4814371;29;20049;-74
2023/09/10 03:35:52;;;;;;;11.23;7.47;;;;;;;20.70;86.42;101077.81;4810810;29;20049;-74
2023/09/10 03:38:20;;;;;;;11.63;8.40;;;;;;;20.67;86.89;101085.69;4840586;29;20062;-74
2023/09/10 03:40:48;;;;;;;13.10;8.00;;;;;;;20.65;87.37;101082.44;4831481;29;20520;-74
2023/09/10 03:43:17;;;;;;;10.98;8.10;;;;;;;20.70;87.34;101078.66;4839958;29;20062;-74
2023/09/10 03:45:45;;;;;;;11.73;8.50;;;;;;;20.75;86.54;101077.63;4823417;29;20066;-74
2023/09/10 03:48:13;;;;;;;12.43;8.95;;;;;;;20.79;86.77;101071.06;4828271;29;20050;-74
2023/09/10 03:50:41;;;;;;;9.85;7.85;;;;;;;20.79;87.25;101067.47;4826495;29;20050;-74
2023/09/10 03:53:09;;;;;;;11.77;8.80;;;;;;;20.70;87.15;101061.13;4840012;29;20038;-74
2023/09/10 03:55:37;;;;;;;11.43;8.80;;;;;;;20.70;87.44;101053.63;4809964;29;20054;-74
2023/09/10 03:58:05;;;;;;;13.75;8.43;;;;;;;20.73;87.09;101057.69;4839312;29;20069;-74
2023/09/10 04:00:35;;;;;;;10.52;8.13;;;;;;;20.65;87.88;101063.00;4818610;29;20054;-74
2023/09/10 04:03:04;;;;;;;12.88;8.00;;;;;;;20.70;87.46;101061.97;4839838;29;20398;-74
2023/09/10 04:05:32;;;;;;;11.68;8.63;;;;;;;20.78;86.75;101057.50;4825680;29;20054;-74
2023/09/10 04:08:00;;;;;;;11.77;9.38;;;;;;;20.77;87.39;101059.44;4825555;29;20057;-74
2023/09/10 04:10:28;;;;;;;13.43;9.80;;;;;;;20.71;87.80;101069.16;4809518;29;20046;-74
2023/09/10 04:12:56;;;;;;;14.70;9.65;;;;;;;20.74;88.16;101067.66;4809919;29;20069;-74
2023/09/10 04:15:24;;;;;;;12.23;9.35;;;;;;;20.67;87.49;101066.22;4809603;29;20063;-74
2023/09/10 04:17:53;;;;;;;11.90;10.13;;;;;;;20.60;87.93;101060.41;4827937;29;20051;-74
2023/09/10 04:20:21;;;;;;;10.43;8.45;;;;;;;20.49;89.19;101065.50;4840982;29;20050;-74
2023/09/10 04:22:49;;;;;;;12.93;9.77;;;;;;;20.55;88.51;101063.38;4842139;29;20069;-74
2023/09/10 04:25:18;;;;;;;13.02;9.35;;;;;;;20.48;89.38;101068.66;4827430;29;20397;-74
2023/09/10 04:27:46;;;;;;;12.77;9.82;;;;;;;20.49;89.31;101067.50;4827471;29;20065;-74
2023/09/10 04:30:14;;;;;;;11.80;9.23;;;;;;;20.45;89.82;101072.09;4842785;29;20065;-74
2023/09/10 04:32:42;;;;;;;13.38;9.02;;;;;;;20.45;89.50;101063.75;4843557;29;20061;-74
2023/09/10 04:35:12;;;;;;;12.07;8.48;;;;;;;20.47;89.08;101067.81;4844258;29;20062;-74
2023/09/10 04:37:41;;;;;;;10.77;8.90;;;;;;;20.48;88.88;101063.88;4829244;29;20062;-74
2023/09/10 04:40:09;;;;;;;11.98;8.82;;;;;;;20.51;89.35;101074.34;4829601;29;20069;-74
2023/09/10 04:42:37;;;;;;;10.48;8.50;;;;;;;20.53;89.06;101063.69;4826789;29;20053;-74
2023/09/10 04:45:05;;;;;;;13.98;8.63;;;;;;;20.53;89.62;101065.69;4841797;29;20075;-74
2023/09/10 04:47:34;;;;;;;11.52;8.63;;;;;;;20.47;89.51;101064.25;4825885;29;20061;-74
2023/09/10 04:50:03;;;;;;;10.38;8.70;;;;;;;20.45;90.13;101067.34;4841830;29;20055;-73
2023/09/10 04:52:31;;;;;;;10.30;8.45;;;;;;;20.45;89.67;101069.31;4808796;29;20053;-74
2023/09/10 04:54:59;;;;;;;12.02;9.13;;;;;;;20.48;89.47;101069.44;4809018;29;20055;-73
2023/09/10 04:57:27;;;;;;;12.35;8.30;;;;;;;20.41;89.40;101075.56;4838251;29;20062;-74
2023/09/10 04:59:55;;;;;;;11.15;8.90;;;;;;;20.42;89.04;101081.91;4807986;29;20046;-75
2023/09/10 05:02:24;;;;;;;14.18;8.77;;;;;;;20.47;88.72;101078.16;4808321;29;20055;-74
2023/09/10 05:04:52;;;;;;;12.90;8.13;;;;;;;20.41;88.59;101081.13;4827322;29;20053;-74
2023/09/10 05:07:20;;;;;;;12.80;8.23;;;;;;;20.49;88.40;101081.41;4823044;29;20414;-73
2023/09/10 05:09:49;;;;;;;10.77;7.75;;;;;;;20.98;86.96;101085.69;4826272;29;20069;-89
2023/09/10 05:12:18;;;;;;;11.70;7.45;;;;;;;21.51;83.68;101079.66;4810218;29;20180;-91
2023/09/10 05:14:47;;;;;;;11.35;7.85;;;;;;;21.95;80.97;101082.78;4810653;29;20508;-91
2023/09/10 05:17:16;;;;;;;11.55;7.30;;;;;;;22.17;78.70;101082.69;4827167;29;20074;-91
2023/09/10 05:19:47;;;;;;;9.45;7.18;;;;;;;22.50;77.45;101096.56;4835225;29;20416;-92
2023/09/10 05:22:27;;;;;;;8.82;6.32;;;;;;;22.64;76.64;101095.41;4826527;29;20061;-92
2023/09/10 05:24:59;;;;;;;9.63;7.53;;;;;;;22.76;75.91;101095.38;4829467;29;20061;-91
2023/09/10 05:27:27;;;;;;;10.40;7.25;;;;;;;22.84;75.73;101095.59;4844967;29;20057;-91
2023/09/10 05:30:09;;;;;;;10.38;7.40;;;;;;;22.76;75.31;101098.16;4824021;29;20049;-91
2023/09/10 05:32:53;;;;;;;10.32;7.15;;;;;;;22.84;74.90;101092.78;4811074;29;20406;-91
2023/09/10 05:35:35;;;;;;;13.33;7.37;;;;;;;22.87;75.08;101094.91;4812195;29;20521;-91
2023/09/10 05:38:03;;;;;;;10.05;7.07;;;;;;;22.98;74.60;101104.41;4786266;29;20050;-92
2023/09/10 05:40:36;;;;;;;9.45;7.32;;;;;;;22.93;74.33;101096.28;4812118;29;20058;-92
2023/09/10 05:43:18;;;;;;;11.70;7.53;;;;;;;23.01;74.34;101103.69;4807165;29;20402;-91
2023/09/10 05:45:47;;;;;;;8.65;6.90;;;;;;;22.87;74.24;101103.28;4808485;29;20058;-93
2023/09/10 05:48:17;;;;;;;8.52;6.47;;;;;;;23.01;73.74;101098.09;4807747;29;20058;-93
2023/09/10 05:50:46;;;;;;;7.82;6.80;;;;;;;23.13;73.01;101090.88;4821012;29;20061;-93
2023/09/10 05:53:14;;;;;;;10.00;5.88;;;;;;;23.22;72.16;101088.75;4809141;29;20054;-93
2023/09/10 05:55:56;;;;;;;8.73;6.57;;;;;;;23.27;71.99;101091.25;4805214;29;20058;-91
2023/09/10 05:58:39;;;;;;;8.80;5.90;;;;;;;23.25;72.05;101099.19;4807528;29;20042;-92
2023/09/10 06:01:49;;;;;;;7.00;5.93;;;;;;;23.31;71.70;101086.63;4834588;29;20054;-92
2023/09/10 06:04:33;;;;;;;9.57;6.47;;;;;;;23.21;72.18;101095.47;4810142;29;20049;-88
2023/09/10 06:07:03;;;;;;;8.52;6.30;;;;;;;23.34;72.48;101094.31;4814187;29;20054;-90
2023/09/10 06:09:33;;;;;;;9.27;6.68;;;;;;;23.58;72.15;101098.16;4807001;29;20349;-90
2023/09/10 06:12:03;;;;;;;12.05;6.70;;;;;;;23.71;71.25;101095.28;4818278;29;20812;-92
2023/09/10 06:14:34;;;;;;;8.35;6.68;;;;;;;23.79;70.67;101091.50;4821921;29;20054;-93
2023/09/10 06:17:18;;;;;;;8.10;6.22;;;;;;;23.76;70.20;101089.44;4810934;29;20066;-93
2023/09/10 06:20:12;;;;;;;9.20;6.13;;;;;;;23.80;70.13;101095.13;4796344;29;20418;-92
2023/09/10 06:22:59;;;;;;;10.25;6.22;;;;;;;23.99;69.26;101098.03;4809748;29;20050;-91
2023/09/10 06:25:43;;;;;;;6.72;6.03;;;;;;;24.05;69.42;101087.38;4818795;29;20509;-91
2023/09/10 06:28:25;;;;;;;6.72;5.78;;;;;;;24.15;68.91;101083.28;4803572;29;20513;-93
2023/09/10 06:30:54;;;;;;;7.47;5.80;;;;;;;24.14;67.45;101090.00;4812722;29;20429;-92
2023/09/10 06:33:24;;;;;;;7.45;5.32;;;;;;;24.29;67.86;101086.41;4792851;29;20276;-91
2023/09/10 06:36:06;;;;;;;6.90;5.00;;;;;;;24.43;67.00;101099.09;4797511;29;20402;-91
2023/09/10 06:38:38;;;;;;;7.13;6.25;;;;;;;24.52;66.56;101087.72;4806038;29;20054;-91
2023/09/10 06:41:11;;;;;;;6.25;5.35;;;;;;;24.62;66.44;101089.97;4820875;29;20130;-90
2023/09/10 06:43:39;;;;;;;8.20;5.70;;;;;;;24.73;66.22;101097.78;4804125;29;20411;-92
2023/09/10 06:46:13;;;;;;;11.32;5.45;;;;;;;24.81;65.64;101100.41;4819608;29;20058;-94
2023/09/10 06:48:42;;;;;;;8.30;5.85;;;;;;;24.83;64.97;101105.66;4798546;29;20061;-94
2023/09/10 06:51:10;;;;;;;11.90;5.70;;;;;;;24.73;65.66;101098.59;4791666;29;20062;-93
2023/09/10 06:53:43;;;;;;;11.57;5.70;;;;;;;24.95;65.31;101105.53;4805037;29;20066;-94
2023/09/10 06:56:12;;;;;;;7.13;5.60;;;;;;;25.07;65.34;101106.56;4815735;29;20059;-93
2023/09/10 06:58:40;;;;;;;6.63;5.70;;;;;;;25.06;65.31;101100.16;4805557;29;20054;-94
2023/09/10 07:01:09;;;;;;;6.97;5.20;;;;;;;25.15;64.77;101102.72;4807423;29;20058;-93
2023/09/10 07:03:38;;;;;;;12.77;5.65;;;;;;;25.26;64.70;101111.34;4821901;29;20050;-93
2023/09/10 07:06:10;;;;;;;9.82;5.97;;;;;;;25.44;63.78;101111.72;4811046;29;20475;-95
2023/09/10 07:08:39;;;;;;;22.55;6.13;;;;;;;25.44;63.62;101122.09;4806109;29;20055;-92
2023/09/10 07:11:16;;;;;;;18.73;7.03;;;;;;;25.38;62.90;101115.19;4838072;29;20426;-91
2023/09/10 07:14:03;;;;;;;22.65;6.95;;;;;;;25.57;62.13;101117.19;4826481;29;20135;-96
2023/09/10 08:01:27;;;;;;;5.05;4.55;;;;;;;26.74;54.47;101143.25;4785980;29;20558;-89
2023/09/10 08:11:13;;;;;;;7.35;4.50;;;;;;;26.81;53.81;101139.72;4750187;30;20071;-89
2023/09/10 08:25:39;;;;;;;5.97;5.10;;;;;;;27.04;51.78;101150.09;4751112;30;20149;-89
2023/09/10 08:35:32;;;;;;;6.70;4.55;;;;;;;27.50;50.25;101166.72;4774957;30;20066;-87
2023/09/10 08:39:55;;;;;;;5.90;4.93;;;;;;;27.50;50.15;101155.50;4783445;30;20404;-87
2023/09/10 08:44:12;;;;;;;6.40;4.72;;;;;;;27.54;50.18;101154.69;4786280;30;20411;-87
2023/09/10 08:49:06;;;;;;;7.25;4.97;;;;;;;27.67;49.35;101158.09;4818873;29;20062;-87
2023/09/10 08:52:22;;;;;;;5.05;4.55;;;;;;;27.72;50.31;101160.56;4822486;29;20062;-88
2023/09/10 08:56:43;;;;;;;6.60;4.40;;;;;;;27.76;49.78;101167.84;4786279;30;20063;-89
2023/09/10 08:59:13;;;;;;;5.10;4.57;;;;;;;27.81;50.49;101147.00;4741971;30;20055;-90
2023/09/10 09:03:08;;;;;;;5.13;4.60;;;;;;;27.89;50.37;101157.13;4762947;30;20059;-89
2023/09/10 09:05:58;;;;;;;6.97;4.03;;;;;;;27.92;49.26;101149.13;4779776;30;20067;-87
2023/09/10 09:33:45;;;;;;;5.60;4.00;;;;;;;28.51;46.96;101138.00;4766510;29;20522;-88
2023/09/10 09:38:46;;;;;;;6.63;4.45;;;;;;;28.56;46.33;101131.19;4784797;29;20403;-90
2023/09/10 09:43:51;;;;;;;7.40;5.00;;;;;;;28.75;45.35;101134.94;4722637;30;20064;-90
2023/09/10 09:48:15;;;;;;;5.30;4.43;;;;;;;28.89;46.32;101140.69;4706498;30;20064;-87
2023/09/10 09:56:10;;;;;;;5.63;4.50;;;;;;;29.09;44.80;101131.94;4801917;29;20414;-89
2023/09/10 09:58:58;;;;;;;5.75;4.35;;;;;;;29.19;44.34;101128.34;4818766;29;20194;-88
2023/09/10 10:02:37;;;;;;;6.32;4.35;;;;;;;29.33;43.44;101133.22;4793899;29;20054;-88
2023/09/10 10:06:31;;;;;;;6.93;4.63;;;;;;;29.23;43.76;101136.81;4795532;29;20046;-88
2023/09/10 10:10:22;;;;;;;5.60;4.40;;;;;;;29.18;44.22;101123.91;4814373;29;20051;-92
2023/09/10 10:19:49;;;;;;;5.60;4.50;;;;;;;29.29;42.40;101120.31;4821071;29;20057;-93
2023/09/10 10:23:51;;;;;;;4.55;4.15;;;;;;;29.60;42.36;101120.84;4827700;29;20069;-90
2023/09/10 10:28:02;;;;;;;5.65;4.32;;;;;;;29.41;42.54;101122.00;4839241;29;20046;-95
2023/09/10 10:32:17;;;;;;;7.40;4.63;;;;;;;29.42;44.29;101104.66;4809727;29;20046;-90
2023/09/10 10:35:52;;;;;;;6.63;4.43;;;;;;;29.71;42.65;101109.59;4823636;29;20062;-90
2023/09/10 10:39:21;;;;;;;4.50;4.10;;;;;;;29.54;43.48;101099.88;4847279;29;20042;-90
2023/09/10 10:43:23;;;;;;;;;;;;;;;29.71;43.76;101101.94;4843058;29;20050;-91
2023/09/10 10:47:30;;;;;;;6.32;5.15;;;;;;;29.78;42.84;101093.47;4822513;29;19932;-89
2023/09/10 10:54:52;;;;;;;8.98;4.65;;;;;;;29.99;42.87;101080.59;4797570;29;20047;-90
2023/09/10 10:58:39;;;;;;;6.88;4.32;;;;;;;30.12;42.95;101083.03;4787013;29;20047;-87
2023/09/10 11:01:41;;;;;;;6.82;4.97;;;;;;;30.12;42.89;101078.22;4797226;29;20047;-91
2023/09/10 11:05:08;;;;;;;7.05;5.00;;;;;;;30.18;42.12;101075.78;4793677;29;20066;-91
2023/09/10 11:09:14;;;;;;;6.05;4.90;;;;;;;30.33;42.75;101076.56;4787142;29;20054;-89
2023/09/10 11:13:38;;;;;;;6.70;4.93;;;;;;;30.33;43.09;101070.09;4796247;29;20057;-86
2023/09/10 11:18:06;;;;;;;6.05;5.13;;;;;;;30.41;43.19;101071.72;4799766;29;20054;-89
2023/09/10 11:21:56;;;;;;;6.82;5.18;;;;;;;30.48;42.83;101071.69;4803360;29;20443;-89
2023/09/10 11:29:04;;;;;;;5.05;4.55;;;;;;;30.58;42.85;101055.94;4793469;29;20279;-90
2023/09/10 11:32:22;;;;;;;7.35;5.00;;;;;;;30.55;42.22;101057.56;4788379;29;20046;-92
2023/09/10 11:41:52;;;;;;;6.80;4.90;;;;;;;30.63;40.87;101049.09;4785348;29;20063;-89
2023/09/10 11:46:09;;;;;;;;;;;;;;;30.92;41.63;101046.16;4817015;29;20109;-89
2023/09/10 11:50:44;;;;;;;5.50;5.00;;;;;;;31.11;41.65;101040.03;4801429;29;19925;-90
2023/09/10 11:55:16;;;;;;;5.28;4.68;;;;;;;30.94;40.07;101038.09;4782303;29;20059;-91
2023/09/10 12:00:16;;;;;;;5.55;4.95;;;;;;;31.31;41.34;101028.22;4783469;30;20447;-89
2023/09/10 12:19:42;;;;;;;7.40;5.10;;;;;;;32.08;38.88;101021.97;4768700;30;20062;-91
2023/09/10 12:28:19;;;;;;;6.25;4.90;;;;;;;31.89;40.75;101024.97;4754292;30;20056;-88
2023/09/10 12:32:20;;;;;;;9.25;5.75;;;;;;;32.13;40.58;101016.66;4744035;30;20059;-89
2023/09/10 12:35:30;;;;;;;7.15;5.20;;;;;;;32.11;39.31;101024.75;4748909;30;20082;-89
2023/09/10 12:43:00;;;;;;;5.72;4.82;;;;;;;32.59;38.57;101005.25;4733126;30;20517;-89
2023/09/10 12:46:50;;;;;;;6.53;5.07;;;;;;;32.68;39.10;101008.38;4733725;30;20064;-91
2023/09/10 12:50:57;;;;;;;6.03;4.85;;;;;;;32.75;38.31;101010.31;4742284;30;20899;-90
2023/09/10 12:55:21;;;;;;;6.72;5.50;;;;;;;32.77;37.81;101013.53;4783594;29;20063;-91
2023/09/10 13:04:03;;;;;;;6.07;5.47;;;;;;;32.76;37.69;100994.13;4821089;29;20057;-89
2023/09/10 13:12:17;;;;;;;8.32;5.70;;;;;;;33.01;37.81;100993.00;4803350;29;20053;-89
2023/09/10 13:16:58;;;;;;;8.32;5.40;;;;;;;33.05;37.73;100990.91;4779450;30;20082;-89
2023/09/10 13:21:25;;;;;;;5.82;5.20;;;;;;;32.40;36.15;100978.34;4740523;30;20075;-94
2023/09/10 13:25:49;;;;;;;6.93;5.07;;;;;;;32.68;37.58;100980.06;4757164;30;20083;-89
2023/09/10 13:34:45;;;;;;;9.60;5.22;;;;;;;33.13;37.41;100972.56;4719096;30;20065;-88
2023/09/10 13:38:36;;;;;;;7.03;4.97;;;;;;;33.25;36.79;100962.66;4740670;30;20472;-87
2023/09/10 13:43:12;;;;;;;7.32;5.28;;;;;;;32.92;37.43;100968.78;4746408;30;20048;-89
2023/09/10 13:46:20;;;;;;;5.88;5.28;;;;;;;32.91;37.25;100960.72;4757378;30;20074;-88
2023/09/10 13:50:23;;;;;;;5.65;4.60;;;;;;;32.98;37.35;100960.63;4762002;30;20064;-88
2023/09/10 13:54:56;;;;;;;8.77;5.18;;;;;;;32.75;37.00;100955.69;4750158;30;20091;-90
2023/09/10 13:59:26;;;;;;;5.78;5.00;;;;;;;32.08;38.84;100954.84;4754551;30;20067;-90
2023/09/10 14:08:37;;;;;;;7.45;5.13;;;;;;;32.56;38.05;100935.28;4763042;30;20059;-91
2023/09/10 14:22:01;;;;;;;8.35;4.97;;;;;;;32.39;38.59;100928.59;4748877;30;20058;-86
2023/09/10 14:34:46;;;;;;;6.90;5.75;;;;;;;32.48;38.87;100934.59;4740791;30;20065;-90
2023/09/10 14:37:16;;;;;;;7.72;4.85;;;;;;;32.45;39.10;100921.28;4749617;30;20063;-86
2023/09/10 14:40:59;;;;;;;7.45;5.82;;;;;;;32.31;39.14;100931.53;4742973;30;20060;-87
2023/09/10 14:44:30;;;;;;;5.20;4.70;;;;;;;32.28;39.28;100921.06;4750660;30;20059;-93
2023/09/10 15:01:48;;;;;;;5.93;5.22;;;;;;;31.87;40.27;100922.72;4794265;29;20062;-90
2023/09/10 15:06:09;;;;;;;5.65;5.00;;;;;;;31.57;39.84;100921.38;4815493;29;20061;-93
2023/09/10 15:10:41;;;;;;;8.45;5.55;;;;;;;31.44;39.94;100914.63;4820198;29;20069;-89
2023/09/10 15:17:01;;;;;;;7.32;5.55;;;;;;;31.48;40.46;100907.72;4822463;29;20066;-88
2023/09/10 15:19:30;;;;;;;7.38;5.50;;;;;;;31.50;40.72;100912.94;4819942;29;20049;-90
2023/09/10 15:21:59;;;;;;;8.95;5.65;;;;;;;31.50;40.99;100907.28;4808201;29;20064;-88
2023/09/10 15:24:27;;;;;;;7.63;6.05;;;;;;;31.49;40.16;100900.84;4826983;29;20042;-90
2023/09/10 15:26:56;;;;;;;6.53;5.90;;;;;;;31.40;40.68;100899.72;4801458;29;20065;-88
2023/09/10 15:29:24;;;;;;;7.80;5.38;;;;;;;31.43;40.29;100901.72;4816519;29;20050;-91
2023/09/10 15:31:52;;;;;;;8.88;5.78;;;;;;;31.30;42.11;100898.59;4838782;29;20058;-86
2023/09/10 15:34:20;;;;;;;6.10;5.50;;;;;;;31.32;42.14;100896.94;4822392;29;20047;-93
2023/09/10 15:36:48;;;;;;;6.57;5.65;;;;;;;31.37;41.47;100905.00;4837548;29;20053;-94
2023/09/10 15:39:18;;;;;;;6.07;5.53;;;;;;;31.23;41.14;100888.91;4790785;29;20057;-90
2023/09/10 15:41:47;;;;;;;8.07;6.18;;;;;;;31.41;41.73;100890.81;4831629;29;20053;-89
2023/09/10 15:44:16;;;;;;;8.00;5.95;;;;;;;31.24;41.05;100875.59;4825436;29;20053;-87
2023/09/10 15:46:44;;;;;;;40.05;23.40;;;;;;;31.35;41.48;100884.81;4803113;29;20062;-84
2023/09/10 15:49:12;;;;;;;16.27;9.65;;;;;;;31.24;41.25;100879.22;4832923;29;20050;-87
2023/09/10 15:55:03;;;;;;;16.77;11.70;;;;;;;30.84;41.85;100878.75;5016259;23;20064;-94
2023/09/10 15:57:32;;;;;;;29.13;19.45;;;;;;;31.06;42.23;100893.50;4842869;29;20041;-94
2023/09/10 16:00:08;;;;;;;9.53;8.13;;;;;;;31.09;41.82;100892.66;4930689;23;20053;31
2023/09/10 16:02:38;;;;;;;22.20;13.57;;;;;;;31.00;41.92;100881.03;4783178;29;20051;-95
2023/09/10 16:05:11;;;;;;;53.50;34.00;;;;;;;30.95;41.93;100884.31;4792739;29;20043;-94
2023/09/10 16:17:35;;;;;;;23.60;15.20;;;;;;;30.81;42.54;100886.00;5260056;23;21254;-96
2023/09/10 16:23:37;;;;;;;17.50;12.27;;;;;;;30.73;43.52;100878.78;5279920;24;20064;-90
2023/09/10 16:26:06;;;;;;;16.30;10.98;;;;;;;30.63;43.88;100890.94;4864169;29;20504;-85
2023/09/10 16:28:34;;;;;;;15.38;10.90;;;;;;;30.61;43.51;100887.72;4861121;29;20054;-90
2023/09/10 16:54:58;;;;;;;10.57;7.95;;;;;;;30.38;45.56;100889.84;5251207;23;20027;-86
2023/09/10 16:57:26;;;;;;;9.73;7.88;;;;;;;30.20;44.99;100886.31;4848519;29;20060;-79
2023/09/10 16:59:54;;;;;;;18.77;12.32;;;;;;;30.12;46.41;100880.69;4879100;29;20511;-80
2023/09/10 17:02:24;;;;;;;11.18;8.10;;;;;;;30.17;45.96;100874.59;4879493;29;20052;-80
2023/09/10 17:04:52;;;;;;;9.63;8.02;;;;;;;30.03;45.81;100875.47;4881792;23;20053;-80
2023/09/10 17:07:20;;;;;;;11.15;8.35;;;;;;;29.99;46.90;100891.59;4860579;29;20046;-80
2023/09/10 17:09:48;;;;;;;9.63;7.35;;;;;;;29.92;46.41;100871.88;4860150;29;20045;-80
2023/09/10 17:12:16;;;;;;;21.52;8.63;;;;;;;29.92;47.45;100880.31;4843875;29;20552;-80
2023/09/10 17:14:49;;;;;;;10.27;7.07;;;;;;;29.85;47.15;100869.03;4860687;29;20053;-80